Rakitna Rakitna

Učna pot


Verjetnost toče več informacij Hail probability


Moja kamera več informacij My webcam


Cestna kamera več informacij Road camera


ARSO, spremljajte nas več informacij


Obiščite še:

Template documentacija
in prenos

in še drugo stran



Posebna pozornost v zvezi z vremenskimi dogajanji ni potrebna.    Posebna pozornost v zvezi z vremenskimi dogajanji ni potrebna.

METAR v bližini

   
LJLJ - Ljubljana
Posodobljeno: 31-05-2020 02:30
jasno  
jasno  
   Veter: ZSZ 5.6 km/h
Veter: ZSZ 5.6 km/h
Temperatura: 4°C
Občutek mraza: 3°C
Točka rosišča: 3°C
Vlažnost: 93%
Zračni tlak: 1018 hPa
Vidljivost: več kot 10 km
Podrobnosti o oblakih: jasno
LJLJ 310030Z 30003KT 250V330 CAVOK 04/03 Q1018 NOSIG
LJCE - Cerklje ob Krki
Posodobljeno: 31-05-2020 02:30
jasno  
jasno  
   Veter: Brezveterje
Veter: Brezveterje
Temperatura: 7°C
Točka rosišča: 5°C
Vlažnost: 87%
Zračni tlak: 1018 hPa
Oblaki: jasno
Vidljivost: več kot 10 km
Podrobnosti o oblakih: jasno
LJCE 310030Z AUTO 00000KT 9999 NCD 07/05 Q1018
LJMB - Maribor
Posodobljeno: 31-05-2020 02:30
delno oblačno  
delno oblačno  
   Veter: različen 1.9 km/h
Veter: različen 1.9 km/h
Temperatura: 8°C
Točka rosišča: 4°C
Vlažnost: 76%
Zračni tlak: 1018 hPa
Oblaki: delno oblačno
Vidljivost: več kot 10 km
Podrobnosti o oblakih: delno oblačno
LJMB 310030Z AUTO VRB01KT 9999 NSC 08/04 Q1018
LJPZ - Portorož
Posodobljeno: 31-05-2020 02:30
delno oblačno  
delno oblačno  
   Veter: VSV 7.4 km/h
Veter: VSV 7.4 km/h
Temperatura: 17°C
Točka rosišča: 3°C
Vlažnost: 39%
Zračni tlak: 1017 hPa
Oblaki: delno oblačno
Vidljivost: več kot 10 km
Podrobnosti o oblakih: delno oblačno
LJPZ 310030Z AUTO 07004KT 020V110 9999 NSC 17/03 Q1017
LDRI - Rijeka, Airport, Croatia
Posodobljeno: 31-05-2020 02:30
jasno  
jasno  
   Veter: SV 9.3 km/h
Veter: SV 9.3 km/h
Temperatura: 15°C
Točka rosišča: 3°C
Vlažnost: 45%
Zračni tlak: 1017 hPa
Vidljivost: več kot 10 km
Podrobnosti o oblakih: jasno
LDRI 310030Z 04005KT 320V120 CAVOK 15/03 Q1017
LOWK - Klagenfurt, Airport, Avstia
Posodobljeno: 31-05-2020 02:20
jasno  
jasno  
   Veter: ZSZ 5.6 km/h
Veter: ZSZ 5.6 km/h
Temperatura: 6°C
Občutek mraza: 5°C
Točka rosišča: 3°C
Vlažnost: 81%
Zračni tlak: 1019 hPa
Oblaki: jasno
Vidljivost: več kot 10 km
Podrobnosti o oblakih: jasno
LOWK 310020Z AUTO 29003KT 9999 NCD 06/03 Q1019

Script developed by  Saratoga-weather.org Adapted for the template by  Weerstation Leuven

Vremenski podatki so objavljeni na:

Slovenska vremenska mreža

WeatherlinkIP

MapView

Geostik

Oprema, ki se uporablja:

Vremenska postaja
Davis VP2+ ventilirana

Vremenski program
WeatherLink

Vremenski server
Shuttle XS35V4

Ponudnik
Vremensko društvo ZEVS

Davis VP2+ ventilirana

WeatherLink

Shuttle XS35V4

Vremensko društvo ZEVS

Meteorološki podatki vremenske postaje Rakitna so neuradni, meteorološka postaja sama pa ni del državne mreže Agencije Republike Slovenije za okolje (ARSO),
je pa vključena v Vremensko društvo ZEVS. Prikazani podatki so izmerjeni točno, vendar so zgolj informativni in nimajo značaja uradnega podatka.

Podatke meri vremenska postaja "Davis VP2+ ventilirana" od 05.03.2011 dalje.

Opozarjamo, da ne prevzamemo odgovornosti za morebitno nastalo škodo, ki bi nastala zaradi odločitve, sprejete na osnovi teh podatkov!